sensor_id;sensor_type;location;lat;lon;timestamp;P1;durP1;ratioP1;P2;durP2;ratioP2
16760;SDS011;8498;52.516;13.790;2022-09-09T00:03:04;7.63;;;5.80;;
16760;SDS011;8498;52.516;13.790;2022-09-09T00:14:41;6.07;;;4.87;;
16760;SDS011;8498;52.516;13.790;2022-09-09T00:20:30;8.43;;;5.83;;
16760;SDS011;8498;52.516;13.790;2022-09-09T00:26:20;6.97;;;5.70;;
16760;SDS011;8498;52.516;13.790;2022-09-09T00:31:40;7.40;;;5.33;;
16760;SDS011;8498;52.516;13.790;2022-09-09T00:37:03;6.67;;;4.80;;
16760;SDS011;8498;52.516;13.790;2022-09-09T00:42:47;5.17;;;4.37;;
16760;SDS011;8498;52.516;13.790;2022-09-09T01:00:29;5.13;;;4.37;;
16760;SDS011;8498;52.516;13.790;2022-09-09T01:06:11;8.57;;;4.60;;
16760;SDS011;8498;52.516;13.790;2022-09-09T01:11:39;9.43;;;4.63;;
16760;SDS011;8498;52.516;13.790;2022-09-09T01:29:15;5.57;;;4.60;;
16760;SDS011;8498;52.516;13.790;2022-09-09T01:34:40;7.93;;;4.50;;
16760;SDS011;8498;52.516;13.790;2022-09-09T01:40:03;4.57;;;4.13;;
16760;SDS011;8498;52.516;13.790;2022-09-09T01:45:27;9.37;;;4.90;;
16760;SDS011;8498;52.516;13.790;2022-09-09T01:50:50;5.57;;;4.40;;
16760;SDS011;8498;52.516;13.790;2022-09-09T01:56:26;7.73;;;4.73;;
16760;SDS011;8498;52.516;13.790;2022-09-09T02:07:43;4.83;;;4.33;;
16760;SDS011;8498;52.516;13.790;2022-09-09T02:13:23;7.47;;;4.93;;
16760;SDS011;8498;52.516;13.790;2022-09-09T02:18:51;6.67;;;4.40;;
16760;SDS011;8498;52.516;13.790;2022-09-09T02:24:48;8.20;;;5.40;;
16760;SDS011;8498;52.516;13.790;2022-09-09T02:30:18;6.53;;;4.50;;
16760;SDS011;8498;52.516;13.790;2022-09-09T02:35:49;4.30;;;3.90;;
16760;SDS011;8498;52.516;13.790;2022-09-09T02:41:20;7.27;;;3.83;;
16760;SDS011;8498;52.516;13.790;2022-09-09T02:58:22;8.23;;;4.43;;
16760;SDS011;8498;52.516;13.790;2022-09-09T03:03:52;6.50;;;4.57;;
16760;SDS011;8498;52.516;13.790;2022-09-09T03:09:19;5.63;;;4.63;;
16760;SDS011;8498;52.516;13.790;2022-09-09T03:14:43;5.83;;;4.13;;
16760;SDS011;8498;52.516;13.790;2022-09-09T03:20:08;4.77;;;4.20;;
16760;SDS011;8498;52.516;13.790;2022-09-09T03:25:32;5.67;;;4.23;;
16760;SDS011;8498;52.516;13.790;2022-09-09T03:30:58;6.47;;;4.77;;
16760;SDS011;8498;52.516;13.790;2022-09-09T03:36:32;6.27;;;4.73;;
16760;SDS011;8498;52.516;13.790;2022-09-09T03:41:56;7.50;;;4.63;;
16760;SDS011;8498;52.516;13.790;2022-09-09T03:47:19;5.43;;;4.40;;
16760;SDS011;8498;52.516;13.790;2022-09-09T03:52:46;7.43;;;4.40;;
16760;SDS011;8498;52.516;13.790;2022-09-09T03:58:14;5.00;;;4.50;;
16760;SDS011;8498;52.516;13.790;2022-09-09T04:03:38;5.50;;;4.57;;
16760;SDS011;8498;52.516;13.790;2022-09-09T04:09:01;5.63;;;4.27;;
16760;SDS011;8498;52.516;13.790;2022-09-09T04:14:26;6.07;;;3.90;;
16760;SDS011;8498;52.516;13.790;2022-09-09T04:19:51;7.63;;;4.70;;
16760;SDS011;8498;52.516;13.790;2022-09-09T04:25:14;7.80;;;4.10;;
16760;SDS011;8498;52.516;13.790;2022-09-09T04:30:37;11.07;;;4.90;;
16760;SDS011;8498;52.516;13.790;2022-09-09T04:36:02;7.07;;;4.20;;
16760;SDS011;8498;52.516;13.790;2022-09-09T04:41:25;5.70;;;4.70;;
16760;SDS011;8498;52.516;13.790;2022-09-09T04:46:48;5.60;;;4.53;;
16760;SDS011;8498;52.516;13.790;2022-09-09T04:52:11;6.57;;;4.83;;
16760;SDS011;8498;52.516;13.790;2022-09-09T04:57:34;7.97;;;5.20;;
16760;SDS011;8498;52.516;13.790;2022-09-09T05:02:57;10.03;;;5.80;;
16760;SDS011;8498;52.516;13.790;2022-09-09T05:08:19;7.77;;;4.77;;
16760;SDS011;8498;52.516;13.790;2022-09-09T05:13:43;5.63;;;4.70;;
16760;SDS011;8498;52.516;13.790;2022-09-09T05:19:06;7.53;;;4.77;;
16760;SDS011;8498;52.516;13.790;2022-09-09T05:24:38;5.73;;;4.67;;
16760;SDS011;8498;52.516;13.790;2022-09-09T05:30:02;8.07;;;4.50;;
16760;SDS011;8498;52.516;13.790;2022-09-09T05:35:25;7.17;;;4.80;;
16760;SDS011;8498;52.516;13.790;2022-09-09T05:40:47;6.17;;;4.73;;
16760;SDS011;8498;52.516;13.790;2022-09-09T05:46:13;6.17;;;4.90;;
16760;SDS011;8498;52.516;13.790;2022-09-09T05:51:38;7.27;;;4.90;;
16760;SDS011;8498;52.516;13.790;2022-09-09T05:57:04;7.23;;;5.27;;
16760;SDS011;8498;52.516;13.790;2022-09-09T06:02:27;6.20;;;4.80;;
16760;SDS011;8498;52.516;13.790;2022-09-09T06:07:52;8.40;;;4.73;;
16760;SDS011;8498;52.516;13.790;2022-09-09T06:13:14;6.87;;;5.03;;
16760;SDS011;8498;52.516;13.790;2022-09-09T06:18:37;8.00;;;5.70;;
16760;SDS011;8498;52.516;13.790;2022-09-09T06:24:01;7.90;;;5.27;;
16760;SDS011;8498;52.516;13.790;2022-09-09T06:29:24;7.20;;;5.23;;
16760;SDS011;8498;52.516;13.790;2022-09-09T06:34:47;7.90;;;5.43;;
16760;SDS011;8498;52.516;13.790;2022-09-09T06:40:11;6.53;;;4.97;;
16760;SDS011;8498;52.516;13.790;2022-09-09T06:45:34;6.43;;;4.83;;
16760;SDS011;8498;52.516;13.790;2022-09-09T06:51:02;8.30;;;5.10;;
16760;SDS011;8498;52.516;13.790;2022-09-09T06:56:29;10.47;;;5.00;;
16760;SDS011;8498;52.516;13.790;2022-09-09T07:01:55;8.90;;;4.20;;
16760;SDS011;8498;52.516;13.790;2022-09-09T07:07:19;8.73;;;4.43;;
16760;SDS011;8498;52.516;13.790;2022-09-09T07:12:42;12.50;;;5.07;;
16760;SDS011;8498;52.516;13.790;2022-09-09T07:18:07;10.70;;;4.20;;
16760;SDS011;8498;52.516;13.790;2022-09-09T07:23:32;5.57;;;3.90;;
16760;SDS011;8498;52.516;13.790;2022-09-09T07:28:58;3.93;;;3.53;;
16760;SDS011;8498;52.516;13.790;2022-09-09T07:34:21;4.67;;;3.73;;
16760;SDS011;8498;52.516;13.790;2022-09-09T07:39:43;5.10;;;3.60;;
16760;SDS011;8498;52.516;13.790;2022-09-09T07:45:06;4.70;;;3.37;;
16760;SDS011;8498;52.516;13.790;2022-09-09T07:50:29;3.57;;;3.10;;
16760;SDS011;8498;52.516;13.790;2022-09-09T07:55:52;6.73;;;3.20;;
16760;SDS011;8498;52.516;13.790;2022-09-09T08:01:16;4.43;;;3.37;;
16760;SDS011;8498;52.516;13.790;2022-09-09T08:06:46;4.03;;;2.80;;
16760;SDS011;8498;52.516;13.790;2022-09-09T08:12:12;3.13;;;2.93;;
16760;SDS011;8498;52.516;13.790;2022-09-09T08:17:35;5.70;;;3.27;;
16760;SDS011;8498;52.516;13.790;2022-09-09T08:23:01;3.07;;;2.47;;
16760;SDS011;8498;52.516;13.790;2022-09-09T08:28:23;6.80;;;2.70;;
16760;SDS011;8498;52.516;13.790;2022-09-09T08:33:46;3.47;;;2.80;;
16760;SDS011;8498;52.516;13.790;2022-09-09T08:39:16;5.30;;;2.77;;
16760;SDS011;8498;52.516;13.790;2022-09-09T08:56:08;2.83;;;2.58;;
16760;SDS011;8498;52.516;13.790;2022-09-09T09:01:50;4.10;;;2.67;;
16760;SDS011;8498;52.516;13.790;2022-09-09T09:13:27;3.70;;;2.75;;
16760;SDS011;8498;52.516;13.790;2022-09-09T09:19:28;3.42;;;2.10;;
16760;SDS011;8498;52.516;13.790;2022-09-09T09:24:55;11.00;;;2.63;;
16760;SDS011;8498;52.516;13.790;2022-09-09T09:30:22;3.58;;;2.10;;
16760;SDS011;8498;52.516;13.790;2022-09-09T09:35:57;3.28;;;1.92;;
16760;SDS011;8498;52.516;13.790;2022-09-09T09:41:31;2.53;;;2.03;;
16760;SDS011;8498;52.516;13.790;2022-09-09T09:47:05;3.40;;;2.15;;
16760;SDS011;8498;52.516;13.790;2022-09-09T09:52:38;3.13;;;2.10;;
16760;SDS011;8498;52.516;13.790;2022-09-09T09:58:05;4.30;;;2.10;;
16760;SDS011;8498;52.516;13.790;2022-09-09T10:03:33;7.20;;;2.10;;
16760;SDS011;8498;52.516;13.790;2022-09-09T10:09:01;3.13;;;2.00;;
16760;SDS011;8498;52.516;13.790;2022-09-09T10:31:14;2.70;;;1.52;;
16760;SDS011;8498;52.516;13.790;2022-09-09T10:36:47;1.55;;;1.38;;
16760;SDS011;8498;52.516;13.790;2022-09-09T10:42:12;3.08;;;1.58;;
16760;SDS011;8498;52.516;13.790;2022-09-09T10:53:23;1.80;;;1.52;;
16760;SDS011;8498;52.516;13.790;2022-09-09T10:58:58;3.05;;;1.60;;
16760;SDS011;8498;52.516;13.790;2022-09-09T11:04:33;2.53;;;2.00;;
16760;SDS011;8498;52.516;13.790;2022-09-09T11:10:02;1.73;;;1.38;;
16760;SDS011;8498;52.516;13.790;2022-09-09T11:15:31;4.20;;;1.77;;
16760;SDS011;8498;52.516;13.790;2022-09-09T11:21:02;4.43;;;1.38;;
16760;SDS011;8498;52.516;13.790;2022-09-09T11:26:29;3.05;;;1.42;;
16760;SDS011;8498;52.516;13.790;2022-09-09T11:43:38;2.22;;;1.35;;
16760;SDS011;8498;52.516;13.790;2022-09-09T11:49:04;2.83;;;1.35;;
16760;SDS011;8498;52.516;13.790;2022-09-09T11:54:30;2.88;;;1.42;;
16760;SDS011;8498;52.516;13.790;2022-09-09T11:59:53;1.65;;;1.55;;
16760;SDS011;8498;52.516;13.790;2022-09-09T12:05:17;5.82;;;1.40;;
16760;SDS011;8498;52.516;13.790;2022-09-09T12:10:52;2.00;;;1.10;;
16760;SDS011;8498;52.516;13.790;2022-09-09T12:16:35;2.70;;;1.23;;
16760;SDS011;8498;52.516;13.790;2022-09-09T12:22:04;2.03;;;1.38;;
16760;SDS011;8498;52.516;13.790;2022-09-09T12:27:45;2.28;;;1.40;;
16760;SDS011;8498;52.516;13.790;2022-09-09T12:33:19;2.53;;;1.00;;
16760;SDS011;8498;52.516;13.790;2022-09-09T12:38:43;2.42;;;1.17;;
16760;SDS011;8498;52.516;13.790;2022-09-09T12:44:08;3.38;;;1.05;;
16760;SDS011;8498;52.516;13.790;2022-09-09T12:49:35;1.50;;;1.20;;
16760;SDS011;8498;52.516;13.790;2022-09-09T12:55:02;3.78;;;1.40;;
16760;SDS011;8498;52.516;13.790;2022-09-09T13:00:27;3.33;;;1.42;;
16760;SDS011;8498;52.516;13.790;2022-09-09T13:05:50;2.67;;;1.17;;
16760;SDS011;8498;52.516;13.790;2022-09-09T13:11:14;2.28;;;1.00;;
16760;SDS011;8498;52.516;13.790;2022-09-09T13:16:41;3.55;;;1.48;;
16760;SDS011;8498;52.516;13.790;2022-09-09T13:27:52;1.98;;;1.20;;
16760;SDS011;8498;52.516;13.790;2022-09-09T13:33:22;1.10;;;1.00;;
16760;SDS011;8498;52.516;13.790;2022-09-09T13:44:26;5.05;;;1.63;;
16760;SDS011;8498;52.516;13.790;2022-09-09T13:49:50;1.45;;;1.08;;
16760;SDS011;8498;52.516;13.790;2022-09-09T13:55:13;1.63;;;0.90;;
16760;SDS011;8498;52.516;13.790;2022-09-09T14:00:35;3.10;;;0.80;;
16760;SDS011;8498;52.516;13.790;2022-09-09T14:05:57;1.85;;;0.90;;
16760;SDS011;8498;52.516;13.790;2022-09-09T14:11:20;1.58;;;1.08;;
16760;SDS011;8498;52.516;13.790;2022-09-09T14:16:43;3.35;;;0.93;;
16760;SDS011;8498;52.516;13.790;2022-09-09T14:22:06;3.95;;;1.30;;
16760;SDS011;8498;52.516;13.790;2022-09-09T14:27:29;2.15;;;1.15;;
16760;SDS011;8498;52.516;13.790;2022-09-09T14:32:51;2.40;;;0.95;;
16760;SDS011;8498;52.516;13.790;2022-09-09T14:38:14;1.25;;;0.80;;
16760;SDS011;8498;52.516;13.790;2022-09-09T14:43:40;2.05;;;1.13;;
16760;SDS011;8498;52.516;13.790;2022-09-09T14:49:02;1.80;;;1.00;;
16760;SDS011;8498;52.516;13.790;2022-09-09T14:54:26;2.00;;;1.00;;
16760;SDS011;8498;52.516;13.790;2022-09-09T14:59:48;1.77;;;0.75;;
16760;SDS011;8498;52.516;13.790;2022-09-09T15:05:12;2.88;;;0.90;;
16760;SDS011;8498;52.516;13.790;2022-09-09T15:10:34;2.15;;;1.02;;
16760;SDS011;8498;52.516;13.790;2022-09-09T15:16:03;1.63;;;1.02;;
16760;SDS011;8498;52.516;13.790;2022-09-09T15:21:33;4.55;;;1.23;;
16760;SDS011;8498;52.516;13.790;2022-09-09T15:26:57;1.48;;;1.00;;
16760;SDS011;8498;52.516;13.790;2022-09-09T15:32:19;2.15;;;1.10;;
16760;SDS011;8498;52.516;13.790;2022-09-09T15:37:42;6.95;;;1.20;;
16760;SDS011;8498;52.516;13.790;2022-09-09T15:43:05;4.15;;;1.35;;
16760;SDS011;8498;52.516;13.790;2022-09-09T15:48:31;4.20;;;1.20;;
16760;SDS011;8498;52.516;13.790;2022-09-09T15:53:57;3.75;;;1.20;;
16760;SDS011;8498;52.516;13.790;2022-09-09T15:59:21;3.33;;;1.20;;
16760;SDS011;8498;52.516;13.790;2022-09-09T16:04:47;4.47;;;1.20;;
16760;SDS011;8498;52.516;13.790;2022-09-09T16:10:09;5.60;;;2.10;;
16760;SDS011;8498;52.516;13.790;2022-09-09T16:15:33;6.78;;;2.67;;
16760;SDS011;8498;52.516;13.790;2022-09-09T16:20:55;4.10;;;1.85;;
16760;SDS011;8498;52.516;13.790;2022-09-09T16:26:18;2.95;;;1.60;;
16760;SDS011;8498;52.516;13.790;2022-09-09T16:31:40;3.95;;;1.60;;
16760;SDS011;8498;52.516;13.790;2022-09-09T16:37:03;1.40;;;1.30;;
16760;SDS011;8498;52.516;13.790;2022-09-09T16:42:26;4.95;;;2.03;;
16760;SDS011;8498;52.516;13.790;2022-09-09T16:47:49;2.60;;;1.50;;
16760;SDS011;8498;52.516;13.790;2022-09-09T16:53:11;4.38;;;1.48;;
16760;SDS011;8498;52.516;13.790;2022-09-09T16:58:34;4.50;;;1.30;;
16760;SDS011;8498;52.516;13.790;2022-09-09T17:03:57;0.80;;;0.80;;
16760;SDS011;8498;52.516;13.790;2022-09-09T17:09:23;5.43;;;2.80;;
16760;SDS011;8498;52.516;13.790;2022-09-09T17:14:50;3.85;;;1.83;;
16760;SDS011;8498;52.516;13.790;2022-09-09T17:20:13;1.45;;;1.05;;
16760;SDS011;8498;52.516;13.790;2022-09-09T17:25:36;1.42;;;1.30;;
16760;SDS011;8498;52.516;13.790;2022-09-09T17:31:01;3.80;;;1.35;;
16760;SDS011;8498;52.516;13.790;2022-09-09T17:36:34;1.67;;;1.50;;
16760;SDS011;8498;52.516;13.790;2022-09-09T17:41:58;3.85;;;1.50;;
16760;SDS011;8498;52.516;13.790;2022-09-09T17:47:22;2.83;;;1.60;;
16760;SDS011;8498;52.516;13.790;2022-09-09T17:52:44;6.55;;;1.48;;
16760;SDS011;8498;52.516;13.790;2022-09-09T17:58:06;2.25;;;1.30;;
16760;SDS011;8498;52.516;13.790;2022-09-09T18:03:29;3.83;;;1.60;;
16760;SDS011;8498;52.516;13.790;2022-09-09T18:08:55;2.08;;;1.92;;
16760;SDS011;8498;52.516;13.790;2022-09-09T18:14:20;3.55;;;2.15;;
16760;SDS011;8498;52.516;13.790;2022-09-09T18:19:45;5.47;;;3.72;;
16760;SDS011;8498;52.516;13.790;2022-09-09T18:25:08;6.93;;;4.43;;
16760;SDS011;8498;52.516;13.790;2022-09-09T18:30:30;2.67;;;2.47;;
16760;SDS011;8498;52.516;13.790;2022-09-09T18:35:52;2.53;;;1.77;;
16760;SDS011;8498;52.516;13.790;2022-09-09T18:41:21;3.83;;;1.60;;
16760;SDS011;8498;52.516;13.790;2022-09-09T18:46:47;1.37;;;1.03;;
16760;SDS011;8498;52.516;13.790;2022-09-09T18:52:10;2.90;;;1.40;;
16760;SDS011;8498;52.516;13.790;2022-09-09T18:57:34;1.37;;;1.33;;
16760;SDS011;8498;52.516;13.790;2022-09-09T19:02:57;2.50;;;1.43;;
16760;SDS011;8498;52.516;13.790;2022-09-09T19:08:19;10.83;;;2.60;;
16760;SDS011;8498;52.516;13.790;2022-09-09T19:13:42;1.30;;;1.30;;
16760;SDS011;8498;52.516;13.790;2022-09-09T19:19:06;2.20;;;1.40;;
16760;SDS011;8498;52.516;13.790;2022-09-09T19:24:31;4.90;;;1.60;;
16760;SDS011;8498;52.516;13.790;2022-09-09T19:29:54;2.27;;;1.30;;
16760;SDS011;8498;52.516;13.790;2022-09-09T19:35:18;3.27;;;1.37;;
16760;SDS011;8498;52.516;13.790;2022-09-09T19:40:43;7.70;;;1.93;;
16760;SDS011;8498;52.516;13.790;2022-09-09T19:46:08;1.83;;;1.70;;
16760;SDS011;8498;52.516;13.790;2022-09-09T19:51:32;2.43;;;1.83;;
16760;SDS011;8498;52.516;13.790;2022-09-09T19:56:55;4.27;;;1.67;;
16760;SDS011;8498;52.516;13.790;2022-09-09T20:02:17;2.13;;;1.40;;
16760;SDS011;8498;52.516;13.790;2022-09-09T20:07:39;2.97;;;1.37;;
16760;SDS011;8498;52.516;13.790;2022-09-09T20:13:02;2.60;;;1.30;;
16760;SDS011;8498;52.516;13.790;2022-09-09T20:18:25;2.33;;;1.30;;
16760;SDS011;8498;52.516;13.790;2022-09-09T20:23:53;2.30;;;1.30;;
16760;SDS011;8498;52.516;13.790;2022-09-09T20:29:18;3.13;;;1.53;;
16760;SDS011;8498;52.516;13.790;2022-09-09T20:34:41;1.53;;;1.43;;
16760;SDS011;8498;52.516;13.790;2022-09-09T20:40:09;1.33;;;1.23;;
16760;SDS011;8498;52.516;13.790;2022-09-09T20:45:34;4.63;;;1.60;;
16760;SDS011;8498;52.516;13.790;2022-09-09T20:51:01;1.80;;;1.13;;
16760;SDS011;8498;52.516;13.790;2022-09-09T20:56:24;4.20;;;1.67;;
16760;SDS011;8498;52.516;13.790;2022-09-09T21:01:48;1.87;;;1.30;;
16760;SDS011;8498;52.516;13.790;2022-09-09T21:07:11;1.60;;;1.40;;
16760;SDS011;8498;52.516;13.790;2022-09-09T21:12:34;1.60;;;1.50;;
16760;SDS011;8498;52.516;13.790;2022-09-09T21:17:56;2.43;;;1.70;;
16760;SDS011;8498;52.516;13.790;2022-09-09T21:23:18;3.60;;;1.60;;
16760;SDS011;8498;52.516;13.790;2022-09-09T21:28:41;3.43;;;1.40;;
16760;SDS011;8498;52.516;13.790;2022-09-09T21:34:03;1.77;;;1.43;;
16760;SDS011;8498;52.516;13.790;2022-09-09T21:39:27;2.53;;;1.47;;
16760;SDS011;8498;52.516;13.790;2022-09-09T21:44:49;1.60;;;1.43;;
16760;SDS011;8498;52.516;13.790;2022-09-09T21:50:12;1.70;;;1.60;;
16760;SDS011;8498;52.516;13.790;2022-09-09T21:55:36;1.60;;;1.50;;
16760;SDS011;8498;52.516;13.790;2022-09-09T22:01:06;1.40;;;1.30;;
16760;SDS011;8498;52.516;13.790;2022-09-09T22:06:32;2.33;;;1.27;;
16760;SDS011;8498;52.516;13.790;2022-09-09T22:11:56;1.80;;;1.33;;
16760;SDS011;8498;52.516;13.790;2022-09-09T22:17:19;1.27;;;1.17;;
16760;SDS011;8498;52.516;13.790;2022-09-09T22:22:41;2.20;;;1.40;;
16760;SDS011;8498;52.516;13.790;2022-09-09T22:28:04;1.47;;;1.43;;
16760;SDS011;8498;52.516;13.790;2022-09-09T22:33:28;2.93;;;1.57;;
16760;SDS011;8498;52.516;13.790;2022-09-09T22:38:51;2.23;;;1.50;;
16760;SDS011;8498;52.516;13.790;2022-09-09T22:44:14;1.60;;;1.43;;
16760;SDS011;8498;52.516;13.790;2022-09-09T22:49:36;3.67;;;1.53;;
16760;SDS011;8498;52.516;13.790;2022-09-09T22:54:59;1.50;;;1.40;;
16760;SDS011;8498;52.516;13.790;2022-09-09T23:00:22;1.70;;;1.40;;
16760;SDS011;8498;52.516;13.790;2022-09-09T23:05:51;1.63;;;1.53;;
16760;SDS011;8498;52.516;13.790;2022-09-09T23:11:14;1.50;;;1.40;;
16760;SDS011;8498;52.516;13.790;2022-09-09T23:16:44;7.17;;;1.77;;
16760;SDS011;8498;52.516;13.790;2022-09-09T23:22:07;1.90;;;1.60;;
16760;SDS011;8498;52.516;13.790;2022-09-09T23:27:29;1.70;;;1.60;;
16760;SDS011;8498;52.516;13.790;2022-09-09T23:32:52;2.13;;;1.50;;
16760;SDS011;8498;52.516;13.790;2022-09-09T23:38:14;1.30;;;1.20;;
16760;SDS011;8498;52.516;13.790;2022-09-09T23:43:37;1.73;;;1.40;;
16760;SDS011;8498;52.516;13.790;2022-09-09T23:49:04;1.77;;;1.47;;
16760;SDS011;8498;52.516;13.790;2022-09-09T23:54:29;1.50;;;1.10;;
16760;SDS011;8498;52.516;13.790;2022-09-09T23:59:51;1.93;;;1.47;;
